Terminal Aerodrome Forecast
Issued by NWS Louisville, KY

Home | Current Version | Previous Version | Text Only | Print | Product List | Glossary On
Versions: 1 2 3 4 5 6 7 8 9 10 11 12 13 14 15 16
000
FTUS43 KLMK 291124
TAFLEX
TAF
KLEX 291124Z 2912/3012 VRB03KT 6SM BR BKN012
     FM291400 VRB03KT P6SM BKN025
     FM291800 34004KT P6SM VCSH BKN021
     FM300000 VRB03KT P6SM BKN035=

USA.gov is the U.S. government's official web portal to all federal, state and local government web resources and services.